createdAt,value
2019-03-04T00:01:46.941Z,10.80
2019-03-04T00:04:15.417Z,10.80
2019-03-04T00:06:43.840Z,10.80
2019-03-04T00:09:12.301Z,10.80
2019-03-04T00:11:41.097Z,10.80
2019-03-04T00:14:09.569Z,10.80
2019-03-04T00:16:37.993Z,10.90
2019-03-04T00:19:06.556Z,10.80
2019-03-04T00:21:34.989Z,10.90
2019-03-04T00:24:03.432Z,10.90
2019-03-04T00:26:31.872Z,10.90
2019-03-04T00:29:00.380Z,10.80
2019-03-04T00:31:29.950Z,10.80
2019-03-04T00:33:58.395Z,10.80
2019-03-04T00:36:26.836Z,10.80
2019-03-04T00:38:55.277Z,10.80
2019-03-04T00:41:23.728Z,10.80
2019-03-04T00:43:52.188Z,10.90
2019-03-04T00:46:20.620Z,10.80
2019-03-04T00:48:49.053Z,10.80
2019-03-04T00:51:17.500Z,10.80
2019-03-04T00:53:45.962Z,10.80
2019-03-04T00:56:14.392Z,10.90
2019-03-04T00:58:42.844Z,10.90
2019-03-04T01:01:11.265Z,10.90
2019-03-04T01:03:39.712Z,10.90
2019-03-04T01:06:08.139Z,10.90
2019-03-04T01:08:36.586Z,10.90
2019-03-04T01:11:06.583Z,11.00
2019-03-04T01:13:35.009Z,10.90
2019-03-04T01:16:03.541Z,10.90
2019-03-04T01:18:31.970Z,11.00
2019-03-04T01:21:00.440Z,11.00
2019-03-04T01:23:30.382Z,11.00
2019-03-04T01:25:58.880Z,11.00
2019-03-04T01:28:27.360Z,11.00
2019-03-04T01:30:55.812Z,11.10
2019-03-04T01:33:24.257Z,11.10
2019-03-04T01:35:52.717Z,11.20
2019-03-04T01:38:21.146Z,11.10
2019-03-04T01:40:51.729Z,11.10
2019-03-04T01:43:20.162Z,11.10
2019-03-04T01:45:48.768Z,11.10
2019-03-04T01:48:17.200Z,11.20
2019-03-04T01:50:45.709Z,11.20
2019-03-04T01:53:14.145Z,11.20
2019-03-04T01:55:43.714Z,11.20
2019-03-04T01:58:12.145Z,11.20
2019-03-04T02:00:40.613Z,11.20
2019-03-04T02:03:09.081Z,11.20
2019-03-04T02:05:37.920Z,11.20
2019-03-04T02:08:06.347Z,11.30
2019-03-04T02:10:34.780Z,11.30
2019-03-04T02:13:03.208Z,11.20
2019-03-04T02:15:31.641Z,11.20
2019-03-04T02:18:00.062Z,11.10
2019-03-04T02:20:28.498Z,11.10
2019-03-04T02:22:56.928Z,11.10
2019-03-04T02:25:44.852Z,11.10
2019-03-04T02:28:13.276Z,11.10
2019-03-04T02:30:41.731Z,11.20
2019-03-04T02:33:10.157Z,11.20
2019-03-04T02:35:38.578Z,11.20
2019-03-04T02:38:07.058Z,11.10
2019-03-04T02:40:35.485Z,11.20
2019-03-04T02:43:03.927Z,11.20
2019-03-04T02:45:32.374Z,11.20
2019-03-04T02:48:00.807Z,11.20
2019-03-04T02:50:31.409Z,11.20
2019-03-04T02:52:59.934Z,11.20
2019-03-04T02:55:28.353Z,11.20
2019-03-04T02:57:56.814Z,11.30
2019-03-04T03:00:25.298Z,11.30
2019-03-04T03:02:53.728Z,11.20
2019-03-04T03:05:22.154Z,11.30
2019-03-04T03:07:50.619Z,11.30
2019-03-04T03:10:19.045Z,11.30
2019-03-04T03:12:47.487Z,11.30
2019-03-04T03:15:19.153Z,11.40
2019-03-04T03:17:47.593Z,11.40
2019-03-04T03:20:16.851Z,11.40
2019-03-04T03:22:45.316Z,11.40
2019-03-04T03:25:14.771Z,11.40
2019-03-04T03:27:43.307Z,11.40
2019-03-04T03:30:16.105Z,11.40
2019-03-04T03:32:44.544Z,11.50
2019-03-04T03:35:13.273Z,11.50
2019-03-04T03:37:41.832Z,11.50
2019-03-04T03:40:13.673Z,11.50
2019-03-04T03:42:42.116Z,11.50
2019-03-04T03:45:11.420Z,11.60
2019-03-04T03:47:40.122Z,11.60
2019-03-04T03:50:14.306Z,11.60
2019-03-04T03:52:42.765Z,11.60
2019-03-04T03:55:13.482Z,11.60
2019-03-04T03:57:42.263Z,11.70
2019-03-04T04:00:18.853Z,11.60
2019-03-04T04:02:47.278Z,11.60
2019-03-04T04:05:16.067Z,11.60
2019-03-04T04:07:44.577Z,11.60
2019-03-04T04:10:18.014Z,11.70
2019-03-04T04:12:47.255Z,11.70
2019-03-04T04:15:17.134Z,11.70
2019-03-04T04:17:45.626Z,11.70
2019-03-04T04:20:14.258Z,11.70
2019-03-04T04:22:42.834Z,11.70
2019-03-04T04:25:12.181Z,11.70
2019-03-04T04:27:40.599Z,11.70
2019-03-04T04:30:18.825Z,11.80
2019-03-04T04:32:47.254Z,11.80
2019-03-04T04:35:15.696Z,11.70
2019-03-04T04:37:44.221Z,11.70
2019-03-04T04:40:14.366Z,11.70
2019-03-04T04:42:42.801Z,11.70
2019-03-04T04:45:12.128Z,11.70
2019-03-04T04:47:42.581Z,11.70
2019-03-04T04:50:22.387Z,11.70
2019-03-04T04:52:52.357Z,11.70
2019-03-04T04:55:20.795Z,11.70
2019-03-04T04:57:49.238Z,11.70
2019-03-04T05:00:19.273Z,11.70
2019-03-04T05:02:47.704Z,11.70
2019-03-04T05:05:16.154Z,11.70
2019-03-04T05:07:44.573Z,11.70
2019-03-04T05:10:15.925Z,11.70
2019-03-04T05:12:45.525Z,11.70
2019-03-04T05:15:15.995Z,11.80
2019-03-04T05:17:44.430Z,11.70
2019-03-04T05:20:24.472Z,11.70
2019-03-04T05:22:52.907Z,11.70
2019-03-04T05:25:21.351Z,11.70
2019-03-04T05:27:49.796Z,11.80
2019-03-04T05:30:20.348Z,11.80
2019-03-04T05:32:48.801Z,11.80
2019-03-04T05:35:17.285Z,11.80
2019-03-04T05:37:45.741Z,11.80
2019-03-04T05:40:19.095Z,11.80
2019-03-04T05:42:47.555Z,11.80
2019-03-04T05:45:17.114Z,11.80
2019-03-04T05:47:45.592Z,11.80
2019-03-04T05:50:22.093Z,11.80
2019-03-04T05:52:50.530Z,11.80
2019-03-04T05:55:18.951Z,11.80
2019-03-04T05:57:47.390Z,11.80
2019-03-04T06:00:25.099Z,11.80
2019-03-04T06:03:06.421Z,11.90
2019-03-04T06:05:34.846Z,11.80
2019-03-04T06:08:04.917Z,11.90
2019-03-04T06:10:33.390Z,12.00
2019-03-04T06:13:01.887Z,11.90
2019-03-04T06:15:30.301Z,11.90
2019-03-04T06:17:58.728Z,12.00
2019-03-04T06:20:27.229Z,12.00
2019-03-04T06:22:55.679Z,12.00
2019-03-04T06:25:26.443Z,12.00
2019-03-04T06:27:54.877Z,12.00
2019-03-04T06:30:28.162Z,12.00
2019-03-04T06:32:56.722Z,12.00
2019-03-04T06:35:25.370Z,12.00
2019-03-04T06:37:53.880Z,12.00
2019-03-04T06:40:24.074Z,12.00
2019-03-04T06:42:52.485Z,12.00
2019-03-04T06:45:21.295Z,12.00
2019-03-04T06:47:49.740Z,12.00
2019-03-04T06:50:52.352Z,12.10
2019-03-04T06:53:39.170Z,12.10
2019-03-04T06:56:25.724Z,12.20
2019-03-04T06:59:16.538Z,12.40
2019-03-04T07:01:50.705Z,12.60
2019-03-04T07:04:22.421Z,12.70
2019-03-04T07:06:50.854Z,12.80
2019-03-04T07:09:19.285Z,13.10
2019-03-04T07:11:47.882Z,13.00
2019-03-04T07:14:17.142Z,13.20
2019-03-04T07:16:46.318Z,13.40
2019-03-04T07:19:16.693Z,13.60
2019-03-04T07:21:45.665Z,13.60
2019-03-04T07:24:14.186Z,13.40
2019-03-04T07:26:42.628Z,13.30
2019-03-04T07:29:11.059Z,13.20
2019-03-04T07:31:39.486Z,13.40
2019-03-04T07:34:08.466Z,13.20
2019-03-04T07:36:37.776Z,13.10
2019-03-04T07:39:08.036Z,13.20
2019-03-04T07:41:38.310Z,13.40
2019-03-04T07:44:07.195Z,13.70
2019-03-04T07:46:36.196Z,13.80
2019-03-04T07:49:05.502Z,13.80
2019-03-04T07:51:34.197Z,14.00
2019-03-04T07:54:03.176Z,13.70
2019-03-04T07:56:31.659Z,13.50
2019-03-04T07:59:00.170Z,12.90
2019-03-04T08:01:28.640Z,12.60
2019-03-04T08:03:57.135Z,12.40
2019-03-04T08:06:27.142Z,12.30
2019-03-04T08:09:07.667Z,12.20
2019-03-04T08:11:58.919Z,12.10
2019-03-04T08:14:27.557Z,12.20
2019-03-04T08:16:56.158Z,12.10
2019-03-04T08:19:24.639Z,12.10
2019-03-04T08:21:53.118Z,12.10
2019-03-04T08:24:21.541Z,12.20
2019-03-04T08:26:50.041Z,12.20
2019-03-04T08:29:18.505Z,12.30
2019-03-04T08:31:46.953Z,12.30
2019-03-04T08:34:15.382Z,12.30
2019-03-04T08:36:43.851Z,12.20
2019-03-04T08:39:12.404Z,12.20
2019-03-04T08:41:40.925Z,12.20
2019-03-04T08:44:09.350Z,12.10
2019-03-04T08:46:37.808Z,12.10
2019-03-04T08:49:06.226Z,12.20
2019-03-04T08:51:35.150Z,12.20
2019-03-04T08:54:03.670Z,12.10
2019-03-04T08:56:32.101Z,11.60
2019-03-04T08:59:00.522Z,11.20
2019-03-04T09:01:31.135Z,11.10
2019-03-04T09:03:59.194Z,11.10
2019-03-04T09:06:27.719Z,10.30
2019-03-04T09:08:56.193Z,9.30
2019-03-04T09:11:24.621Z,9.00
2019-03-04T09:13:53.264Z,8.60
2019-03-04T09:16:21.710Z,8.50
2019-03-04T09:18:50.138Z,8.20
2019-03-04T09:21:18.673Z,8.00
2019-03-04T09:23:47.109Z,8.00
2019-03-04T09:26:15.561Z,8.00
2019-03-04T09:28:44.081Z,7.90
2019-03-04T09:31:12.523Z,7.90
2019-03-04T09:33:40.967Z,8.10
2019-03-04T09:36:09.716Z,8.10
2019-03-04T09:38:38.160Z,8.10
2019-03-04T09:41:06.580Z,8.00
2019-03-04T09:43:35.005Z,8.10
2019-03-04T09:46:03.465Z,8.10
2019-03-04T09:48:31.885Z,8.20
2019-03-04T09:51:00.320Z,8.20
2019-03-04T09:53:38.843Z,8.20
2019-03-04T09:55:58.911Z,8.10
2019-03-04T09:58:27.353Z,8.20
2019-03-04T10:01:05.562Z,8.20
2019-03-04T10:03:42.976Z,8.40
2019-03-04T10:06:42.338Z,8.30
2019-03-04T10:09:28.829Z,8.50
2019-03-04T10:12:00.338Z,8.70
2019-03-04T10:14:46.679Z,8.70
2019-03-04T10:17:29.821Z,8.80
2019-03-04T10:20:13.096Z,8.90
2019-03-04T10:23:02.729Z,8.80
2019-03-04T10:25:52.029Z,8.80
2019-03-04T10:28:35.527Z,8.90
2019-03-04T10:31:07.049Z,8.90
2019-03-04T10:33:53.149Z,8.90
2019-03-04T10:36:39.397Z,8.90
2019-03-04T10:39:30.412Z,8.90
2019-03-04T10:42:19.742Z,9.00
2019-03-04T10:44:59.952Z,9.00
2019-03-04T10:47:28.477Z,9.10
2019-03-04T10:49:56.912Z,9.10
2019-03-04T10:52:25.349Z,9.20
2019-03-04T10:54:53.770Z,9.10
2019-03-04T10:57:22.221Z,9.10
2019-03-04T10:59:50.650Z,9.20
2019-03-04T11:02:19.094Z,9.10
2019-03-04T11:04:47.541Z,9.10
2019-03-04T11:07:15.996Z,9.20
2019-03-04T11:09:44.513Z,9.20
2019-03-04T11:12:14.135Z,9.20
2019-03-04T11:14:42.986Z,9.10
2019-03-04T11:17:11.414Z,9.20
2019-03-04T11:19:39.871Z,9.20
2019-03-04T11:22:09.369Z,9.40
2019-03-04T11:24:38.373Z,9.40
2019-03-04T11:27:06.868Z,9.40
2019-03-04T11:29:35.323Z,9.50
2019-03-04T11:32:05.513Z,9.60
2019-03-04T11:34:33.953Z,9.70
2019-03-04T11:37:02.385Z,9.80
2019-03-04T11:39:47.151Z,9.90
2019-03-04T11:42:15.644Z,9.90
2019-03-04T11:44:44.086Z,9.90
2019-03-04T11:47:12.504Z,9.90
2019-03-04T11:49:40.939Z,9.80
2019-03-04T11:52:09.352Z,9.60
2019-03-04T11:54:37.808Z,9.60
2019-03-04T11:57:06.225Z,9.30
2019-03-04T11:59:34.682Z,8.60
2019-03-04T12:02:04.770Z,8.10
2019-03-04T12:04:33.209Z,7.80
2019-03-04T12:07:01.658Z,7.70
2019-03-04T12:09:30.094Z,7.60
2019-03-04T12:11:58.518Z,7.70
2019-03-04T12:14:26.967Z,7.70
2019-03-04T12:16:55.653Z,7.70
2019-03-04T12:19:24.089Z,7.80
2019-03-04T12:21:52.512Z,8.00
2019-03-04T12:24:20.972Z,8.00
2019-03-04T12:26:49.385Z,7.90
2019-03-04T12:29:17.834Z,8.00
2019-03-04T12:31:53.748Z,7.80
2019-03-04T12:34:24.911Z,7.80
2019-03-04T12:36:52.866Z,7.50
2019-03-04T12:39:21.294Z,7.50
2019-03-04T12:41:49.897Z,7.40
2019-03-04T12:44:18.426Z,7.40
2019-03-04T12:46:46.883Z,7.50
2019-03-04T12:49:15.302Z,7.60
2019-03-04T12:51:43.754Z,7.60
2019-03-04T12:54:12.176Z,7.90
2019-03-04T12:56:40.696Z,8.00
2019-03-04T12:59:09.144Z,8.10
2019-03-04T13:01:37.586Z,8.20
2019-03-04T13:04:06.208Z,8.40
2019-03-04T13:06:34.641Z,8.40
2019-03-04T13:09:13.874Z,8.50
2019-03-04T13:11:34.781Z,8.60
2019-03-04T13:14:03.206Z,8.70
2019-03-04T13:16:31.778Z,8.80
2019-03-04T13:19:00.221Z,8.80
2019-03-04T13:21:28.857Z,8.90
2019-03-04T13:23:57.292Z,8.80
2019-03-04T13:26:26.090Z,8.60
2019-03-04T13:28:54.521Z,8.70
2019-03-04T13:31:22.949Z,8.80
2019-03-04T13:33:51.369Z,8.90
2019-03-04T13:36:19.831Z,9.00
2019-03-04T13:38:48.240Z,9.10
2019-03-04T13:41:16.673Z,8.80
2019-03-04T13:43:45.158Z,8.60
2019-03-04T13:46:14.048Z,8.60
2019-03-04T13:48:42.480Z,8.60
2019-03-04T13:51:10.984Z,8.60
2019-03-04T13:53:39.410Z,8.40
2019-03-04T13:56:07.832Z,8.30
2019-03-04T13:58:36.265Z,8.30
2019-03-04T14:01:06.433Z,8.20
2019-03-04T14:03:34.883Z,8.20
2019-03-04T14:06:03.374Z,8.30
2019-03-04T14:08:31.819Z,8.50
2019-03-04T14:11:00.256Z,8.70
2019-03-04T14:13:28.689Z,8.60
2019-03-04T14:15:58.539Z,8.40
2019-03-04T14:18:26.965Z,8.50
2019-03-04T14:20:55.404Z,8.40
2019-03-04T14:23:23.855Z,8.30
2019-03-04T14:25:52.273Z,8.30
2019-03-04T14:28:20.729Z,8.30
2019-03-04T14:30:49.154Z,8.20
2019-03-04T14:33:17.576Z,7.80
2019-03-04T14:35:46.162Z,7.70
2019-03-04T14:38:14.593Z,7.40
2019-03-04T14:40:43.054Z,7.40
2019-03-04T14:43:11.544Z,7.50
2019-03-04T14:45:39.953Z,7.50
2019-03-04T14:48:08.390Z,7.60
2019-03-04T14:50:36.837Z,7.70
2019-03-04T14:53:05.278Z,7.70
2019-03-04T14:55:36.321Z,7.70
2019-03-04T14:58:06.332Z,7.80
2019-03-04T15:00:40.704Z,7.70
2019-03-04T15:03:19.049Z,7.70
2019-03-04T15:05:39.721Z,7.70
2019-03-04T15:08:08.301Z,7.70
2019-03-04T15:10:36.751Z,7.70
2019-03-04T15:13:05.481Z,7.70
2019-03-04T15:15:35.248Z,7.70
2019-03-04T15:18:03.979Z,7.70
2019-03-04T15:20:33.840Z,7.70
2019-03-04T15:23:02.273Z,7.80
2019-03-04T15:25:32.472Z,7.80
2019-03-04T15:28:21.445Z,7.80
2019-03-04T15:31:00.869Z,7.70
2019-03-04T15:33:29.343Z,7.70
2019-03-04T15:35:57.817Z,7.70
2019-03-04T15:38:26.263Z,7.60
2019-03-04T15:40:54.785Z,7.60
2019-03-04T15:43:23.219Z,7.60
2019-03-04T15:45:54.898Z,7.60
2019-03-04T15:48:28.442Z,7.60
2019-03-04T15:50:56.472Z,7.50
2019-03-04T15:53:25.001Z,7.40
2019-03-04T15:55:53.596Z,7.20
2019-03-04T15:58:22.209Z,7.20
2019-03-04T16:00:50.971Z,7.20
2019-03-04T16:03:19.721Z,7.00
2019-03-04T16:05:48.249Z,7.00
2019-03-04T16:08:16.780Z,7.00
2019-03-04T16:10:45.282Z,7.00
2019-03-04T16:13:14.075Z,7.00
2019-03-04T16:15:45.152Z,7.00
2019-03-04T16:18:13.606Z,6.90
2019-03-04T16:20:42.305Z,6.90
2019-03-04T16:23:10.801Z,6.90
2019-03-04T16:25:39.230Z,6.80
2019-03-04T16:28:19.340Z,6.80
2019-03-04T16:30:49.608Z,6.80
2019-03-04T16:33:18.585Z,6.80
2019-03-04T16:35:47.338Z,6.90
2019-03-04T16:38:15.845Z,6.90
2019-03-04T16:40:44.351Z,6.70
2019-03-04T16:43:12.837Z,6.70
2019-03-04T16:45:41.721Z,6.70
2019-03-04T16:48:10.430Z,6.70
2019-03-04T16:50:43.974Z,6.70
2019-03-04T16:53:24.384Z,6.60
2019-03-04T16:55:52.901Z,6.50
2019-03-04T16:58:21.336Z,6.60
2019-03-04T17:00:50.125Z,6.60
2019-03-04T17:03:18.674Z,6.50
2019-03-04T17:05:47.106Z,6.60
2019-03-04T17:08:15.613Z,6.50
2019-03-04T17:10:44.044Z,6.50
2019-03-04T17:13:12.471Z,6.50
2019-03-04T17:15:40.917Z,6.60
2019-03-04T17:18:09.343Z,6.60
2019-03-04T17:20:37.783Z,6.50
2019-03-04T17:23:06.769Z,6.60
2019-03-04T17:25:35.204Z,6.50
2019-03-04T17:28:03.815Z,6.50
2019-03-04T17:30:32.515Z,6.50
2019-03-04T17:33:01.205Z,6.50
2019-03-04T17:35:29.666Z,6.50
2019-03-04T17:37:58.091Z,6.60
2019-03-04T17:40:28.169Z,6.60
2019-03-04T17:42:56.585Z,6.60
2019-03-04T17:45:26.457Z,6.60
2019-03-04T17:47:54.906Z,6.60
2019-03-04T17:50:28.989Z,6.50
2019-03-04T17:52:57.423Z,6.60
2019-03-04T17:55:25.867Z,6.60
2019-03-04T17:57:54.353Z,6.60
2019-03-04T18:00:22.957Z,6.60
2019-03-04T18:02:51.394Z,6.60
2019-03-04T18:05:19.813Z,6.60
2019-03-04T18:07:48.269Z,6.70
2019-03-04T18:10:17.925Z,6.80
2019-03-04T18:12:46.919Z,6.80
2019-03-04T18:15:21.114Z,6.70
2019-03-04T18:17:49.556Z,7.50
2019-03-04T18:20:18.053Z,8.20
2019-03-04T18:22:46.761Z,9.00
2019-03-04T18:25:40.647Z,7.90
2019-03-04T18:28:12.186Z,7.20
2019-03-04T18:31:00.285Z,6.90
2019-03-04T18:33:49.411Z,6.70
2019-03-04T18:36:21.222Z,6.70
2019-03-04T18:39:04.939Z,6.60
2019-03-04T18:41:41.634Z,6.60
2019-03-04T18:44:35.970Z,6.60
2019-03-04T18:47:36.405Z,6.60
2019-03-04T18:50:06.688Z,6.50
2019-03-04T18:52:35.121Z,6.60
2019-03-04T18:55:05.947Z,6.50
2019-03-04T18:57:34.412Z,6.60
2019-03-04T19:00:03.313Z,6.50
2019-03-04T19:02:31.804Z,6.50
2019-03-04T19:05:00.307Z,6.50
2019-03-04T19:07:29.085Z,6.50
2019-03-04T19:09:57.504Z,6.60
2019-03-04T19:12:26.060Z,6.50
2019-03-04T19:14:54.586Z,6.60
2019-03-04T19:17:23.049Z,6.60
2019-03-04T19:19:51.480Z,6.70
2019-03-04T19:22:20.466Z,6.70
2019-03-04T19:24:49.253Z,6.70
2019-03-04T19:27:17.711Z,6.70
2019-03-04T19:29:46.171Z,6.70
2019-03-04T19:32:14.677Z,6.70
2019-03-04T19:34:43.110Z,6.80
2019-03-04T19:37:11.528Z,6.90
2019-03-04T19:39:39.974Z,7.00
2019-03-04T19:42:08.398Z,7.10
2019-03-04T19:44:36.839Z,7.10
2019-03-04T19:47:05.781Z,7.10
2019-03-04T19:49:37.311Z,7.10
2019-03-04T19:52:06.329Z,7.10
2019-03-04T19:54:34.972Z,7.10
2019-03-04T19:57:04.238Z,7.20
2019-03-04T19:59:32.699Z,7.20
2019-03-04T20:02:02.213Z,7.20
2019-03-04T20:04:30.800Z,7.20
2019-03-04T20:06:59.577Z,7.30
2019-03-04T20:09:28.109Z,7.20
2019-03-04T20:11:57.409Z,7.20
2019-03-04T20:14:25.871Z,7.20
2019-03-04T20:16:54.418Z,7.20
2019-03-04T20:19:22.925Z,7.20
2019-03-04T20:21:51.381Z,7.20
2019-03-04T20:24:20.058Z,7.20
2019-03-04T20:26:48.480Z,7.20
2019-03-04T20:29:16.932Z,7.20
2019-03-04T20:31:45.499Z,7.20
2019-03-04T20:34:13.993Z,7.20
2019-03-04T20:36:42.564Z,7.20
2019-03-04T20:39:12.534Z,7.30
2019-03-04T20:41:40.975Z,7.30
2019-03-04T20:44:09.416Z,7.30
2019-03-04T20:46:37.871Z,7.30
2019-03-04T20:49:06.290Z,7.30
2019-03-04T20:51:34.766Z,7.30
2019-03-04T20:54:03.401Z,7.30
2019-03-04T20:56:31.833Z,7.30
2019-03-04T20:59:00.258Z,7.40
2019-03-04T21:01:28.825Z,7.40
2019-03-04T21:03:57.345Z,7.40
2019-03-04T21:06:25.815Z,7.40
2019-03-04T21:08:55.809Z,7.40
2019-03-04T21:11:24.357Z,7.40
2019-03-04T21:13:52.781Z,7.40
2019-03-04T21:16:21.228Z,7.40
2019-03-04T21:18:49.654Z,7.40
2019-03-04T21:21:18.118Z,7.40
2019-03-04T21:23:48.434Z,7.40
2019-03-04T21:26:19.948Z,7.40
2019-03-04T21:29:08.314Z,7.40
2019-03-04T21:31:42.450Z,7.40
2019-03-04T21:34:19.875Z,7.40
2019-03-04T21:36:59.917Z,7.40
2019-03-04T21:39:37.206Z,7.30
2019-03-04T21:42:26.501Z,7.30
2019-03-04T21:45:23.026Z,7.30
2019-03-04T21:48:03.612Z,7.30
2019-03-04T21:50:52.941Z,7.30
2019-03-04T21:53:36.230Z,7.20
2019-03-04T21:56:19.601Z,7.20
2019-03-04T21:58:48.041Z,7.30
2019-03-04T22:01:31.729Z,7.20
2019-03-04T22:04:01.031Z,7.20
2019-03-04T22:06:29.538Z,7.20
2019-03-04T22:08:58.534Z,7.60
2019-03-04T22:11:26.981Z,8.10
2019-03-04T22:13:55.596Z,8.50
2019-03-04T22:16:26.527Z,8.60
2019-03-04T22:18:55.339Z,8.10
2019-03-04T22:21:23.836Z,7.50
2019-03-04T22:23:52.378Z,7.40
2019-03-04T22:26:20.876Z,7.30
2019-03-04T22:28:49.365Z,7.30
2019-03-04T22:31:17.831Z,7.30
2019-03-04T22:33:46.362Z,7.20
2019-03-04T22:36:14.842Z,7.10
2019-03-04T22:38:43.344Z,7.10
2019-03-04T22:41:13.764Z,7.10
2019-03-04T22:43:42.139Z,7.10
2019-03-04T22:46:10.577Z,7.10
2019-03-04T22:48:39.016Z,7.10
2019-03-04T22:51:07.462Z,7.10
2019-03-04T22:53:36.057Z,7.00
2019-03-04T22:56:04.497Z,7.00
2019-03-04T22:58:32.950Z,6.90
2019-03-04T23:01:06.097Z,7.00
2019-03-04T23:03:37.585Z,6.90
2019-03-04T23:06:09.198Z,7.00
2019-03-04T23:08:37.652Z,7.00
2019-03-04T23:11:06.437Z,7.00
2019-03-04T23:13:44.254Z,7.00
2019-03-04T23:16:15.625Z,7.00
2019-03-04T23:18:44.081Z,7.00
2019-03-04T23:21:12.525Z,6.90
2019-03-04T23:23:40.968Z,6.90
2019-03-04T23:26:09.401Z,6.90
2019-03-04T23:28:37.827Z,6.90
2019-03-04T23:31:06.281Z,6.90
2019-03-04T23:33:34.696Z,6.80
2019-03-04T23:36:03.157Z,6.80
2019-03-04T23:38:31.686Z,6.90
2019-03-04T23:41:00.168Z,6.80
2019-03-04T23:43:28.596Z,6.80
2019-03-04T23:45:57.104Z,6.80
2019-03-04T23:48:25.531Z,6.90
2019-03-04T23:50:55.522Z,6.90
2019-03-04T23:53:24.468Z,6.90
2019-03-04T23:55:53.014Z,6.90
2019-03-04T23:58:21.865Z,6.90
